createdAt,value
2019-03-12T00:00:30.091Z,0.00
2019-03-12T00:01:31.016Z,0.00
2019-03-12T00:02:30.049Z,0.00
2019-03-12T00:03:30.034Z,0.00
2019-03-12T00:04:30.026Z,0.00
2019-03-12T00:05:30.017Z,0.00
2019-03-12T00:06:30.032Z,0.00
2019-03-12T00:07:30.005Z,0.00
2019-03-12T00:08:29.978Z,0.00
2019-03-12T00:09:29.975Z,0.00
2019-03-12T00:10:29.980Z,0.00
2019-03-12T00:11:29.946Z,0.00
2019-03-12T00:12:29.934Z,0.00
2019-03-12T00:13:29.926Z,0.00
2019-03-12T00:14:29.922Z,0.00
2019-03-12T00:15:29.926Z,0.00
2019-03-12T00:17:28.882Z,0.00
2019-03-12T00:18:29.877Z,0.00
2019-03-12T00:19:29.864Z,0.00
2019-03-12T00:20:29.881Z,0.00
2019-03-12T00:21:29.834Z,0.00
2019-03-12T00:22:29.836Z,0.00
2019-03-12T00:23:29.822Z,0.00
2019-03-12T00:24:29.880Z,0.00
2019-03-12T00:25:29.808Z,0.00
2019-03-12T00:26:29.791Z,0.00
2019-03-12T00:27:29.773Z,0.00
2019-03-12T00:28:29.768Z,0.00
2019-03-12T00:29:29.758Z,0.00
2019-03-12T00:30:29.739Z,0.00
2019-03-12T00:31:29.728Z,0.00
2019-03-12T00:32:29.742Z,0.00
2019-03-12T00:33:29.710Z,0.00
2019-03-12T00:34:29.694Z,0.00
2019-03-12T00:35:29.686Z,0.00
2019-03-12T00:36:29.677Z,0.00
2019-03-12T00:37:29.698Z,0.00
2019-03-12T00:38:29.656Z,0.00
2019-03-12T00:39:29.644Z,0.00
2019-03-12T00:40:29.628Z,0.00
2019-03-12T00:41:29.620Z,0.00
2019-03-12T00:42:29.614Z,0.00
2019-03-12T00:43:30.044Z,0.00
2019-03-12T00:44:29.612Z,0.00
2019-03-12T00:45:29.584Z,0.00
2019-03-12T00:46:29.581Z,0.00
2019-03-12T00:47:29.558Z,0.00
2019-03-12T00:48:29.545Z,0.00
2019-03-12T00:49:32.505Z,0.00
2019-03-12T00:50:29.538Z,0.00
2019-03-12T00:51:29.529Z,0.00
2019-03-12T00:52:29.506Z,0.00
2019-03-12T00:53:29.526Z,0.00
2019-03-12T00:54:29.488Z,0.00
2019-03-12T00:55:29.470Z,0.00
2019-03-12T00:56:29.461Z,0.00
2019-03-12T00:58:28.482Z,0.00
2019-03-12T00:59:29.431Z,0.00
2019-03-12T01:00:29.422Z,0.00
2019-03-12T01:01:29.414Z,0.00
2019-03-12T01:02:29.399Z,0.00
2019-03-12T01:03:29.656Z,0.00
2019-03-12T01:04:29.374Z,0.00
2019-03-12T01:05:29.357Z,0.00
2019-03-12T01:06:29.352Z,0.00
2019-03-12T01:07:29.340Z,0.00
2019-03-12T01:08:29.327Z,0.00
2019-03-12T01:09:29.344Z,0.00
2019-03-12T01:10:29.335Z,0.00
2019-03-12T01:11:29.299Z,0.00
2019-03-12T01:12:29.281Z,0.00
2019-03-12T01:13:29.282Z,0.00
2019-03-12T01:14:29.272Z,0.00
2019-03-12T01:15:29.249Z,0.00
2019-03-12T01:16:29.275Z,0.00
2019-03-12T01:17:29.232Z,0.00
2019-03-12T01:18:29.224Z,0.00
2019-03-12T01:19:29.235Z,0.00
2019-03-12T01:20:31.995Z,0.00
2019-03-12T01:21:29.191Z,0.00
2019-03-12T01:22:29.181Z,0.00
2019-03-12T01:23:29.176Z,0.00
2019-03-12T01:24:29.166Z,0.00
2019-03-12T01:25:29.181Z,0.00
2019-03-12T01:26:29.146Z,0.00
2019-03-12T01:27:29.126Z,0.00
2019-03-12T01:28:29.120Z,0.00
2019-03-12T01:29:29.115Z,0.00
2019-03-12T01:30:29.093Z,0.00
2019-03-12T01:31:29.115Z,0.00
2019-03-12T01:33:28.063Z,0.00
2019-03-12T01:34:29.051Z,0.00
2019-03-12T01:35:29.041Z,0.00
2019-03-12T01:36:29.041Z,0.00
2019-03-12T01:37:29.043Z,0.00
2019-03-12T01:38:29.006Z,0.00
2019-03-12T01:39:29.000Z,0.00
2019-03-12T01:40:28.990Z,0.00
2019-03-12T01:41:28.985Z,0.00
2019-03-12T01:42:28.959Z,0.00
2019-03-12T01:43:28.990Z,0.00
2019-03-12T01:44:29.479Z,0.00
2019-03-12T01:45:29.488Z,0.00
2019-03-12T01:46:28.923Z,0.00
2019-03-12T01:47:28.914Z,0.00
2019-03-12T01:48:31.480Z,0.00
2019-03-12T01:49:29.007Z,0.00
2019-03-12T01:50:28.869Z,0.00
2019-03-12T01:51:31.195Z,0.00
2019-03-12T01:52:28.852Z,0.00
2019-03-12T01:53:28.843Z,0.00
2019-03-12T01:54:28.827Z,0.00
2019-03-12T01:55:28.859Z,0.00
2019-03-12T01:56:28.839Z,0.00
2019-03-12T01:57:28.798Z,0.00
2019-03-12T01:58:28.787Z,0.00
2019-03-12T01:59:28.778Z,0.00
2019-03-12T02:00:28.765Z,0.00
2019-03-12T02:01:31.475Z,0.00
2019-03-12T02:02:29.473Z,0.00
2019-03-12T02:03:28.730Z,0.00
2019-03-12T02:04:28.724Z,0.00
2019-03-12T02:05:28.713Z,0.00
2019-03-12T02:06:31.471Z,0.00
2019-03-12T02:07:28.696Z,0.00
2019-03-12T02:08:28.725Z,0.00
2019-03-12T02:09:28.683Z,0.00
2019-03-12T02:10:28.655Z,0.00
2019-03-12T02:11:28.736Z,0.00
2019-03-12T02:12:28.639Z,0.00
2019-03-12T02:13:28.624Z,0.00
2019-03-12T02:14:29.468Z,0.00
2019-03-12T02:15:28.606Z,0.00
2019-03-12T02:16:28.625Z,0.00
2019-03-12T02:17:28.584Z,0.00
2019-03-12T02:18:28.573Z,0.00
2019-03-12T02:19:28.563Z,0.00
2019-03-12T02:20:28.553Z,0.00
2019-03-12T02:21:28.543Z,0.00
2019-03-12T02:22:28.565Z,0.00
2019-03-12T02:23:29.127Z,0.00
2019-03-12T02:24:28.507Z,0.00
2019-03-12T02:25:28.531Z,0.00
2019-03-12T02:26:28.492Z,0.00
2019-03-12T02:27:28.485Z,0.00
2019-03-12T02:28:28.468Z,0.00
2019-03-12T02:29:28.452Z,0.00
2019-03-12T02:30:28.445Z,0.00
2019-03-12T02:31:28.462Z,0.00
2019-03-12T02:32:28.418Z,0.00
2019-03-12T02:33:28.412Z,0.00
2019-03-12T02:34:28.410Z,0.00
2019-03-12T02:35:28.392Z,0.00
2019-03-12T02:36:28.376Z,0.00
2019-03-12T02:37:28.395Z,0.00
2019-03-12T02:38:28.353Z,0.00
2019-03-12T02:39:28.342Z,0.00
2019-03-12T02:40:28.344Z,0.00
2019-03-12T02:41:28.328Z,0.00
2019-03-12T02:42:28.311Z,0.00
2019-03-12T02:43:28.340Z,0.00
2019-03-12T02:44:28.291Z,0.00
2019-03-12T02:45:28.276Z,0.00
2019-03-12T02:46:28.265Z,0.00
2019-03-12T02:47:28.259Z,0.00
2019-03-12T02:48:28.299Z,0.00
2019-03-12T02:49:28.964Z,0.00
2019-03-12T02:50:28.223Z,0.00
2019-03-12T02:51:28.217Z,0.00
2019-03-12T02:52:28.205Z,0.00
2019-03-12T02:53:28.192Z,0.00
2019-03-12T02:54:28.963Z,0.00
2019-03-12T02:55:28.172Z,0.00
2019-03-12T02:56:28.159Z,0.00
2019-03-12T02:57:28.152Z,0.00
2019-03-12T02:58:28.176Z,0.00
2019-03-12T02:59:28.131Z,0.00
2019-03-12T03:00:28.146Z,0.00
2019-03-12T03:01:28.118Z,0.00
2019-03-12T03:02:30.965Z,0.00
2019-03-12T03:03:28.083Z,0.00
2019-03-12T03:04:28.072Z,0.00
2019-03-12T03:05:28.064Z,0.00
2019-03-12T03:06:28.076Z,0.00
2019-03-12T03:07:28.039Z,0.00
2019-03-12T03:08:28.957Z,0.00
2019-03-12T03:09:28.023Z,0.00
2019-03-12T03:10:28.016Z,0.00
2019-03-12T03:11:28.001Z,0.00
2019-03-12T03:12:27.984Z,0.00
2019-03-12T03:13:27.978Z,0.00
2019-03-12T03:14:28.004Z,0.00
2019-03-12T03:15:27.963Z,0.00
2019-03-12T03:16:27.937Z,0.00
2019-03-12T03:17:27.936Z,0.00
2019-03-12T03:18:27.920Z,0.00
2019-03-12T03:19:27.909Z,0.00
2019-03-12T03:20:28.496Z,0.00
2019-03-12T03:21:27.893Z,0.00
2019-03-12T03:22:27.880Z,0.00
2019-03-12T03:23:28.456Z,0.00
2019-03-12T03:24:27.860Z,0.00
2019-03-12T03:25:27.879Z,0.00
2019-03-12T03:26:27.833Z,0.00
2019-03-12T03:27:29.581Z,0.00
2019-03-12T03:28:27.814Z,0.00
2019-03-12T03:29:30.447Z,0.00
2019-03-12T03:30:27.872Z,0.00
2019-03-12T03:32:26.864Z,0.00
2019-03-12T03:33:33.972Z,0.00
2019-03-12T03:34:48.755Z,0.00
2019-03-12T03:35:27.747Z,0.00
2019-03-12T03:36:27.730Z,0.00
2019-03-12T03:37:27.722Z,0.00
2019-03-12T03:38:27.710Z,0.00
2019-03-12T03:39:27.719Z,0.00
2019-03-12T03:40:30.445Z,0.00
2019-03-12T03:41:27.698Z,0.00
2019-03-12T03:42:27.667Z,0.00
2019-03-12T03:43:27.660Z,0.00
2019-03-12T03:44:30.444Z,0.00
2019-03-12T03:45:27.626Z,0.00
2019-03-12T03:46:30.442Z,0.00
2019-03-12T03:47:27.634Z,0.00
2019-03-12T03:48:27.601Z,0.00
2019-03-12T03:49:27.587Z,0.00
2019-03-12T03:50:27.590Z,0.00
2019-03-12T03:52:26.568Z,0.00
2019-03-12T03:53:27.576Z,0.00
2019-03-12T03:54:27.622Z,0.00
2019-03-12T03:55:27.516Z,0.00
2019-03-12T03:56:27.507Z,0.00
2019-03-12T03:57:27.502Z,0.00
2019-03-12T03:58:27.494Z,0.00
2019-03-12T03:59:27.512Z,0.00
2019-03-12T04:00:27.465Z,0.00
2019-03-12T04:01:27.447Z,0.00
2019-03-12T04:02:27.440Z,0.00
2019-03-12T04:03:27.436Z,0.00
2019-03-12T04:04:29.939Z,0.00
2019-03-12T04:05:29.939Z,0.00
2019-03-12T04:06:27.405Z,0.00
2019-03-12T04:07:27.418Z,0.00
2019-03-12T04:08:27.383Z,0.00
2019-03-12T04:09:27.370Z,0.00
2019-03-12T04:10:27.358Z,0.00
2019-03-12T04:11:29.937Z,0.00
2019-03-12T04:12:27.333Z,0.00
2019-03-12T04:13:27.324Z,0.00
2019-03-12T04:14:27.320Z,0.00
2019-03-12T04:15:27.308Z,0.00
2019-03-12T04:16:27.320Z,0.00
2019-03-12T04:17:27.282Z,0.00
2019-03-12T04:18:27.318Z,0.00
2019-03-12T04:19:27.252Z,0.00
2019-03-12T04:20:27.254Z,0.00
2019-03-12T04:21:27.244Z,0.00
2019-03-12T04:22:27.248Z,0.00
2019-03-12T04:23:27.213Z,0.00
2019-03-12T04:24:27.211Z,0.00
2019-03-12T04:25:27.190Z,0.00
2019-03-12T04:26:27.188Z,0.00
2019-03-12T04:27:27.172Z,0.00
2019-03-12T04:28:27.191Z,0.00
2019-03-12T04:29:27.149Z,0.00
2019-03-12T04:30:27.143Z,0.00
2019-03-12T04:31:27.133Z,0.00
2019-03-12T04:33:26.140Z,0.00
2019-03-12T04:34:27.093Z,0.00
2019-03-12T04:35:27.086Z,0.00
2019-03-12T04:36:27.926Z,0.00
2019-03-12T04:37:27.060Z,0.00
2019-03-12T04:38:27.086Z,0.00
2019-03-12T04:39:27.051Z,0.00
2019-03-12T04:40:27.924Z,0.00
2019-03-12T04:41:27.024Z,0.00
2019-03-12T04:42:27.010Z,0.00
2019-03-12T04:43:27.020Z,0.00
2019-03-12T04:44:26.995Z,0.00
2019-03-12T04:45:26.977Z,0.00
2019-03-12T04:46:26.962Z,0.00
2019-03-12T04:47:26.955Z,0.00
2019-03-12T04:48:26.953Z,0.00
2019-03-12T04:49:26.932Z,0.00
2019-03-12T04:50:26.927Z,0.00
2019-03-12T04:51:26.910Z,0.00
2019-03-12T04:52:26.904Z,0.00
2019-03-12T04:53:26.892Z,0.00
2019-03-12T04:54:26.884Z,0.00
2019-03-12T04:55:26.870Z,0.00
2019-03-12T04:56:26.865Z,0.00
2019-03-12T04:57:26.846Z,0.00
2019-03-12T04:58:26.835Z,0.00
2019-03-12T04:59:26.828Z,0.00
2019-03-12T05:00:32.916Z,0.00
2019-03-12T05:01:26.813Z,0.00
2019-03-12T05:02:26.796Z,0.00
2019-03-12T05:03:26.779Z,0.00
2019-03-12T05:04:26.792Z,0.00
2019-03-12T05:05:26.800Z,0.00
2019-03-12T05:06:26.780Z,0.00
2019-03-12T05:07:26.740Z,0.00
2019-03-12T05:08:26.729Z,0.00
2019-03-12T05:09:26.721Z,0.00
2019-03-12T05:10:26.701Z,0.00
2019-03-12T05:11:26.694Z,0.00
2019-03-12T05:12:26.728Z,0.00
2019-03-12T05:13:26.684Z,0.00
2019-03-12T05:14:26.751Z,0.00
2019-03-12T05:15:26.650Z,0.00
2019-03-12T05:16:26.638Z,0.00
2019-03-12T05:17:26.641Z,0.00
2019-03-12T05:18:26.645Z,0.00
2019-03-12T05:19:26.606Z,0.00
2019-03-12T05:20:26.596Z,0.00
2019-03-12T05:21:26.585Z,0.00
2019-03-12T05:22:26.573Z,0.00
2019-03-12T05:23:26.564Z,0.00
2019-03-12T05:24:26.586Z,0.00
2019-03-12T05:25:26.550Z,0.00
2019-03-12T05:26:26.540Z,0.00
2019-03-12T05:27:26.542Z,0.00
2019-03-12T05:28:26.590Z,0.00
2019-03-12T05:29:26.505Z,0.00
2019-03-12T05:30:26.518Z,5.62
2019-03-12T05:31:26.480Z,5.62
2019-03-12T05:32:26.467Z,5.62
2019-03-12T05:33:26.459Z,5.62
2019-03-12T05:34:26.440Z,5.62
2019-03-12T05:35:26.438Z,5.62
2019-03-12T05:36:26.449Z,5.62
2019-03-12T05:37:26.413Z,5.62
2019-03-12T05:38:26.950Z,5.62
2019-03-12T05:39:26.423Z,5.62
2019-03-12T05:40:28.906Z,5.62
2019-03-12T05:41:28.904Z,11.25
2019-03-12T05:42:26.362Z,11.25
2019-03-12T05:43:26.346Z,11.25
2019-03-12T05:44:28.904Z,11.25
2019-03-12T05:45:26.356Z,11.25
2019-03-12T05:46:26.312Z,11.25
2019-03-12T05:47:26.316Z,16.88
2019-03-12T05:48:26.298Z,16.88
2019-03-12T05:49:26.288Z,16.88
2019-03-12T05:50:26.904Z,16.88
2019-03-12T05:51:26.262Z,16.88
2019-03-12T05:52:26.252Z,16.88
2019-03-12T05:54:25.236Z,22.50
2019-03-12T05:55:26.226Z,22.50
2019-03-12T05:56:26.208Z,22.50
2019-03-12T05:57:26.194Z,22.50
2019-03-12T05:58:26.191Z,22.50
2019-03-12T06:00:25.239Z,22.50
2019-03-12T06:01:26.158Z,22.50
2019-03-12T06:02:26.142Z,22.50
2019-03-12T06:03:26.132Z,22.50
2019-03-12T06:04:26.124Z,22.50
2019-03-12T06:05:26.130Z,22.50
2019-03-12T06:06:26.096Z,16.88
2019-03-12T06:07:26.094Z,16.88
2019-03-12T06:08:26.078Z,11.25
2019-03-12T06:09:30.384Z,16.88
2019-03-12T06:10:26.081Z,16.88
2019-03-12T06:11:26.043Z,16.88
2019-03-12T06:12:26.036Z,16.88
2019-03-12T06:13:26.032Z,16.88
2019-03-12T06:14:26.014Z,22.50
2019-03-12T06:15:26.895Z,28.12
2019-03-12T06:16:25.990Z,22.50
2019-03-12T06:17:25.982Z,16.88
2019-03-12T06:18:25.972Z,16.88
2019-03-12T06:19:25.963Z,11.25
2019-03-12T06:20:25.952Z,16.88
2019-03-12T06:21:25.970Z,16.88
2019-03-12T06:22:25.924Z,22.50
2019-03-12T06:23:25.914Z,22.50
2019-03-12T06:24:26.293Z,22.50
2019-03-12T06:25:26.748Z,22.50
2019-03-12T06:26:26.574Z,28.12
2019-03-12T06:27:25.868Z,39.38
2019-03-12T06:28:26.053Z,39.38
2019-03-12T06:29:26.222Z,39.38
2019-03-12T06:30:27.120Z,45.00
2019-03-12T06:31:25.953Z,45.00
2019-03-12T06:32:25.941Z,45.00
2019-03-12T06:33:25.896Z,45.00
2019-03-12T06:34:25.793Z,39.38
2019-03-12T06:35:25.928Z,39.38
2019-03-12T06:36:25.773Z,39.38
2019-03-12T06:37:25.791Z,39.38
2019-03-12T06:38:26.387Z,45.00
2019-03-12T06:39:25.748Z,50.62
2019-03-12T06:40:28.390Z,56.25
2019-03-12T06:41:25.718Z,61.88
2019-03-12T06:42:25.709Z,67.50
2019-03-12T06:43:25.723Z,67.50
2019-03-12T06:44:25.686Z,67.50
2019-03-12T06:45:25.676Z,73.12
2019-03-12T06:46:25.704Z,73.12
2019-03-12T06:47:25.657Z,73.12
2019-03-12T06:48:28.384Z,67.50
2019-03-12T06:49:25.713Z,73.12
2019-03-12T06:50:25.626Z,73.12
2019-03-12T06:51:25.608Z,78.75
2019-03-12T06:52:25.628Z,78.75
2019-03-12T06:53:25.593Z,73.12
2019-03-12T06:54:25.581Z,73.12
2019-03-12T06:55:25.568Z,61.88
2019-03-12T06:57:27.378Z,61.88
2019-03-12T06:58:25.540Z,61.88
2019-03-12T06:59:25.573Z,61.88
2019-03-12T07:00:25.505Z,67.50
2019-03-12T07:01:25.500Z,78.75
2019-03-12T07:02:26.378Z,78.75
2019-03-12T07:03:28.382Z,78.75
2019-03-12T07:04:25.487Z,78.75
2019-03-12T07:05:25.486Z,73.12
2019-03-12T07:06:25.446Z,73.12
2019-03-12T07:07:25.447Z,78.75
2019-03-12T07:08:25.426Z,84.38
2019-03-12T07:09:28.380Z,84.38
2019-03-12T07:11:24.416Z,73.12
2019-03-12T07:12:25.389Z,78.75
2019-03-12T07:13:25.878Z,90.00
2019-03-12T07:14:25.380Z,95.62
2019-03-12T07:16:24.346Z,95.62
2019-03-12T07:17:25.323Z,95.62
2019-03-12T07:18:25.318Z,101.25
2019-03-12T07:19:25.307Z,106.88
2019-03-12T07:20:25.327Z,106.88
2019-03-12T07:21:25.320Z,112.50
2019-03-12T07:22:25.272Z,112.50
2019-03-12T07:23:25.263Z,112.50
2019-03-12T07:24:25.254Z,112.50
2019-03-12T07:25:25.262Z,112.50
2019-03-12T07:26:25.366Z,112.50
2019-03-12T07:27:25.221Z,112.50
2019-03-12T07:28:25.209Z,118.12
2019-03-12T07:29:25.194Z,118.12
2019-03-12T07:30:25.195Z,118.12
2019-03-12T07:31:25.246Z,123.75
2019-03-12T07:32:25.206Z,123.75
2019-03-12T07:33:25.154Z,118.12
2019-03-12T07:34:36.184Z,118.12
2019-03-12T07:35:25.128Z,123.75
2019-03-12T07:36:25.118Z,123.75
2019-03-12T07:37:25.112Z,129.38
2019-03-12T07:38:25.220Z,123.75
2019-03-12T07:39:25.088Z,118.12
2019-03-12T07:40:25.085Z,123.75
2019-03-12T07:41:32.401Z,129.38
2019-03-12T07:42:25.060Z,123.75
2019-03-12T07:43:25.047Z,118.12
2019-03-12T07:44:25.079Z,123.75
2019-03-12T07:45:25.038Z,123.75
2019-03-12T07:46:25.047Z,135.00
2019-03-12T07:47:35.250Z,140.62
2019-03-12T07:48:25.010Z,135.00
2019-03-12T07:49:24.997Z,129.38
2019-03-12T07:50:24.968Z,135.00
2019-03-12T07:51:24.977Z,140.62
2019-03-12T07:52:24.977Z,129.38
2019-03-12T07:53:24.939Z,118.12
2019-03-12T07:54:24.934Z,118.12
2019-03-12T07:55:24.942Z,140.62
2019-03-12T07:56:24.908Z,140.62
2019-03-12T07:57:24.894Z,146.25
2019-03-12T07:58:35.316Z,146.25
2019-03-12T07:59:24.876Z,151.88
2019-03-12T08:00:24.897Z,146.25
2019-03-12T08:01:25.165Z,163.12
2019-03-12T08:02:24.845Z,163.12
2019-03-12T08:03:24.835Z,157.50
2019-03-12T08:04:24.821Z,163.12
2019-03-12T08:05:27.949Z,168.75
2019-03-12T08:06:24.837Z,168.75
2019-03-12T08:07:24.828Z,157.50
2019-03-12T08:08:24.780Z,157.50
2019-03-12T08:09:24.767Z,163.12
2019-03-12T08:10:24.754Z,163.12
2019-03-12T08:11:24.751Z,163.12
2019-03-12T08:12:24.765Z,163.12
2019-03-12T08:13:24.721Z,157.50
2019-03-12T08:14:26.913Z,157.50
2019-03-12T08:15:24.700Z,163.12
2019-03-12T08:16:24.691Z,157.50
2019-03-12T08:17:24.803Z,163.12
2019-03-12T08:18:24.669Z,168.75
2019-03-12T08:19:24.657Z,168.75
2019-03-12T08:20:24.648Z,168.75
2019-03-12T08:21:24.642Z,174.38
2019-03-12T08:22:24.627Z,180.00
2019-03-12T08:23:24.648Z,180.00
2019-03-12T08:24:24.606Z,180.00
2019-03-12T08:25:24.590Z,168.75
2019-03-12T08:26:24.585Z,174.38
2019-03-12T08:27:26.078Z,168.75
2019-03-12T08:28:24.588Z,180.00
2019-03-12T08:29:24.545Z,185.62
2019-03-12T08:30:24.543Z,180.00
2019-03-12T08:31:24.529Z,168.75
2019-03-12T08:32:24.519Z,168.75
2019-03-12T08:33:24.499Z,174.38
2019-03-12T08:34:24.522Z,180.00
2019-03-12T08:35:24.488Z,180.00
2019-03-12T08:36:24.473Z,185.62
2019-03-12T08:37:24.569Z,191.25
2019-03-12T08:38:24.453Z,191.25
2019-03-12T08:39:24.438Z,191.25
2019-03-12T08:40:24.471Z,191.25
2019-03-12T08:41:24.419Z,202.50
2019-03-12T08:42:24.441Z,191.25
2019-03-12T08:43:24.388Z,196.88
2019-03-12T08:44:26.370Z,196.88
2019-03-12T08:45:24.373Z,191.25
2019-03-12T08:46:24.384Z,202.50
2019-03-12T08:47:24.364Z,213.75
2019-03-12T08:48:24.366Z,213.75
2019-03-12T08:49:24.335Z,213.75
2019-03-12T08:50:24.317Z,213.75
2019-03-12T08:51:24.305Z,219.38
2019-03-12T08:52:24.299Z,219.38
2019-03-12T08:53:24.294Z,208.12
2019-03-12T08:54:24.315Z,208.12
2019-03-12T08:55:24.265Z,196.88
2019-03-12T08:56:24.250Z,196.88
2019-03-12T08:57:24.243Z,191.25
2019-03-12T08:58:24.265Z,191.25
2019-03-12T08:59:24.221Z,196.88
2019-03-12T09:00:24.327Z,196.88
2019-03-12T09:01:24.211Z,202.50
2019-03-12T09:02:24.183Z,213.75
2019-03-12T09:03:24.198Z,230.62
2019-03-12T09:04:24.372Z,219.38
2019-03-12T09:05:24.157Z,196.88
2019-03-12T09:06:24.145Z,196.88
2019-03-12T09:07:24.841Z,202.50
2019-03-12T09:08:24.120Z,213.75
2019-03-12T09:09:24.112Z,213.75
2019-03-12T09:10:24.182Z,213.75
2019-03-12T09:11:24.090Z,219.38
2019-03-12T09:12:24.231Z,213.75
2019-03-12T09:13:24.062Z,196.88
2019-03-12T09:14:24.058Z,196.88
2019-03-12T09:15:24.039Z,202.50
2019-03-12T09:16:24.078Z,202.50
2019-03-12T09:17:24.027Z,196.88
2019-03-12T09:18:24.012Z,191.25
2019-03-12T09:19:24.005Z,196.88
2019-03-12T09:20:26.838Z,196.88
2019-03-12T09:21:23.977Z,180.00
2019-03-12T09:22:23.992Z,185.62
2019-03-12T09:23:23.955Z,180.00
2019-03-12T09:24:23.942Z,168.75
2019-03-12T09:25:23.967Z,174.38
2019-03-12T09:26:23.929Z,174.38
2019-03-12T09:27:23.910Z,168.75
2019-03-12T09:28:23.895Z,163.12
2019-03-12T09:29:23.890Z,157.50
2019-03-12T09:30:23.881Z,157.50
2019-03-12T09:31:23.889Z,168.75
2019-03-12T09:32:23.851Z,191.25
2019-03-12T09:33:23.847Z,196.88
2019-03-12T09:34:23.828Z,202.50
2019-03-12T09:35:23.818Z,225.00
2019-03-12T09:36:23.809Z,236.25
2019-03-12T09:37:23.820Z,236.25
2019-03-12T09:38:23.785Z,241.88
2019-03-12T09:39:23.778Z,236.25
2019-03-12T09:40:23.771Z,247.50
2019-03-12T09:41:23.753Z,253.12
2019-03-12T09:42:23.769Z,247.50
2019-03-12T09:43:23.736Z,247.50
2019-03-12T09:44:23.722Z,241.88
2019-03-12T09:45:23.715Z,253.12
2019-03-12T09:46:23.695Z,258.75
2019-03-12T09:47:23.693Z,258.75
2019-03-12T09:48:23.705Z,253.12
2019-03-12T09:49:23.675Z,241.88
2019-03-12T09:50:23.657Z,230.62
2019-03-12T09:51:23.652Z,236.25
2019-03-12T09:52:23.632Z,230.62
2019-03-12T09:53:23.657Z,230.62
2019-03-12T09:54:23.640Z,230.62
2019-03-12T09:55:23.601Z,230.62
2019-03-12T09:56:23.590Z,253.12
2019-03-12T09:57:23.626Z,253.12
2019-03-12T09:58:23.557Z,247.50
2019-03-12T09:59:23.589Z,247.50
2019-03-12T10:00:23.551Z,253.12
2019-03-12T10:01:23.541Z,253.12
2019-03-12T10:02:23.529Z,253.12
2019-03-12T10:03:23.513Z,253.12
2019-03-12T10:04:23.637Z,247.50
2019-03-12T10:05:23.530Z,241.88
2019-03-12T10:06:23.513Z,247.50
2019-03-12T10:07:23.465Z,213.75
2019-03-12T10:08:23.464Z,270.00
2019-03-12T10:09:23.447Z,270.00
2019-03-12T10:10:23.473Z,281.25
2019-03-12T10:11:23.424Z,281.25
2019-03-12T10:12:23.409Z,275.62
2019-03-12T10:13:23.431Z,264.38
2019-03-12T10:14:23.394Z,258.75
2019-03-12T10:15:23.383Z,270.00
2019-03-12T10:16:23.491Z,270.00
2019-03-12T10:17:23.362Z,253.12
2019-03-12T10:18:23.351Z,247.50
2019-03-12T10:19:23.333Z,241.88
2019-03-12T10:20:23.325Z,230.62
2019-03-12T10:21:23.324Z,230.62
2019-03-12T10:22:23.356Z,230.62
2019-03-12T10:23:23.381Z,219.38
2019-03-12T10:24:23.301Z,225.00
2019-03-12T10:25:23.274Z,241.88
2019-03-12T10:26:23.257Z,264.38
2019-03-12T10:27:23.247Z,275.62
2019-03-12T10:28:23.292Z,303.75
2019-03-12T10:29:23.234Z,315.00
2019-03-12T10:30:23.217Z,292.50
2019-03-12T10:31:23.212Z,292.50
2019-03-12T10:32:23.620Z,270.00
2019-03-12T10:33:23.186Z,196.88
2019-03-12T10:34:29.511Z,168.75
2019-03-12T10:35:23.235Z,174.38
2019-03-12T10:36:23.293Z,174.38
2019-03-12T10:37:23.137Z,146.25
2019-03-12T10:38:23.164Z,140.62
2019-03-12T10:39:23.157Z,174.38
2019-03-12T10:40:23.111Z,185.62
2019-03-12T10:41:23.093Z,230.62
2019-03-12T10:42:23.083Z,208.12
2019-03-12T10:43:23.077Z,163.12
2019-03-12T10:44:23.087Z,129.38
2019-03-12T10:45:23.081Z,157.50
2019-03-12T10:46:23.033Z,180.00
2019-03-12T10:47:23.031Z,180.00
2019-03-12T10:48:23.053Z,168.75
2019-03-12T10:49:23.009Z,196.88
2019-03-12T10:50:22.999Z,236.25
2019-03-12T10:51:23.016Z,258.75
2019-03-12T10:52:22.970Z,253.12
2019-03-12T10:53:22.986Z,241.88
2019-03-12T10:54:22.957Z,270.00
2019-03-12T10:55:23.408Z,292.50
2019-03-12T10:56:22.935Z,298.12
2019-03-12T10:57:22.936Z,286.88
2019-03-12T10:58:22.917Z,258.75
2019-03-12T10:59:22.900Z,253.12
2019-03-12T11:00:22.900Z,241.88
2019-03-12T11:01:22.921Z,241.88
2019-03-12T11:02:22.893Z,225.00
2019-03-12T11:03:22.857Z,208.12
2019-03-12T11:04:22.849Z,196.88
2019-03-12T11:05:22.839Z,185.62
2019-03-12T11:06:22.824Z,185.62
2019-03-12T11:07:22.853Z,185.62
2019-03-12T11:08:22.803Z,196.88
2019-03-12T11:09:22.792Z,196.88
2019-03-12T11:10:22.782Z,191.25
2019-03-12T11:11:22.758Z,168.75
2019-03-12T11:12:22.758Z,163.12
2019-03-12T11:13:22.784Z,168.75
2019-03-12T11:14:22.919Z,163.12
2019-03-12T11:15:22.725Z,135.00
2019-03-12T11:16:22.713Z,146.25
2019-03-12T11:17:22.702Z,157.50
2019-03-12T11:18:22.721Z,157.50
2019-03-12T11:19:22.676Z,163.12
2019-03-12T11:20:22.682Z,157.50
2019-03-12T11:21:22.661Z,157.50
2019-03-12T11:22:22.646Z,168.75
2019-03-12T11:24:21.645Z,157.50
2019-03-12T11:25:27.826Z,163.12
2019-03-12T11:26:22.606Z,168.75
2019-03-12T11:27:22.591Z,163.12
2019-03-12T11:28:22.581Z,180.00
2019-03-12T11:29:22.608Z,225.00
2019-03-12T11:30:22.642Z,286.88
2019-03-12T11:31:22.555Z,309.38
2019-03-12T11:32:22.548Z,286.88
2019-03-12T11:33:22.523Z,275.62
2019-03-12T11:34:22.510Z,286.88
2019-03-12T11:35:22.548Z,247.50
2019-03-12T11:36:22.574Z,225.00
2019-03-12T11:37:22.870Z,241.88
2019-03-12T11:38:22.554Z,270.00
2019-03-12T11:39:22.466Z,264.38
2019-03-12T11:40:22.456Z,253.12
2019-03-12T11:41:22.435Z,264.38
2019-03-12T11:43:21.449Z,286.88
2019-03-12T11:44:22.411Z,253.12
2019-03-12T11:45:35.676Z,241.88
2019-03-12T11:46:22.407Z,236.25
2019-03-12T11:47:22.382Z,219.38
2019-03-12T11:48:22.440Z,241.88
2019-03-12T11:49:22.377Z,264.38
2019-03-12T11:50:22.372Z,253.12
2019-03-12T11:51:22.363Z,230.62
2019-03-12T11:52:22.350Z,213.75
2019-03-12T11:53:22.338Z,230.62
2019-03-12T11:54:22.336Z,247.50
2019-03-12T11:56:21.380Z,247.50
2019-03-12T11:57:22.260Z,258.75
2019-03-12T11:58:22.257Z,281.25
2019-03-12T11:59:22.268Z,270.00
2019-03-12T12:00:22.233Z,286.88
2019-03-12T12:01:22.225Z,309.38
2019-03-12T12:02:22.210Z,309.38
2019-03-12T12:03:22.200Z,298.12
2019-03-12T12:04:22.223Z,281.25
2019-03-12T12:05:22.179Z,264.38
2019-03-12T12:06:22.593Z,225.00
2019-03-12T12:07:22.152Z,196.88
2019-03-12T12:08:22.347Z,213.75
2019-03-12T12:09:22.164Z,225.00
2019-03-12T12:10:22.165Z,202.50
2019-03-12T12:11:22.107Z,202.50
2019-03-12T12:12:22.128Z,219.38
2019-03-12T12:13:22.855Z,236.25
2019-03-12T12:14:22.078Z,230.62
2019-03-12T12:15:22.072Z,230.62
2019-03-12T12:16:22.056Z,241.88
2019-03-12T12:17:22.093Z,230.62
2019-03-12T12:18:22.039Z,202.50
2019-03-12T12:19:22.024Z,168.75
2019-03-12T12:20:29.596Z,163.12
2019-03-12T12:21:22.001Z,163.12
2019-03-12T12:22:21.996Z,168.75
2019-03-12T12:23:22.011Z,191.25
2019-03-12T12:24:21.999Z,236.25
2019-03-12T12:25:22.445Z,264.38
2019-03-12T12:26:21.954Z,258.75
2019-03-12T12:27:21.931Z,298.12
2019-03-12T12:28:21.923Z,298.12
2019-03-12T12:29:21.936Z,326.25
2019-03-12T12:30:21.914Z,320.62
2019-03-12T12:31:21.890Z,281.25
2019-03-12T12:32:21.877Z,253.12
2019-03-12T12:33:21.899Z,247.50
2019-03-12T12:34:21.880Z,247.50
2019-03-12T12:35:21.842Z,230.62
2019-03-12T12:36:21.834Z,225.00
2019-03-12T12:37:21.825Z,225.00
2019-03-12T12:38:21.815Z,213.75
2019-03-12T12:39:21.831Z,180.00
2019-03-12T12:40:21.851Z,163.12
2019-03-12T12:41:21.803Z,151.88
2019-03-12T12:42:21.770Z,168.75
2019-03-12T12:43:21.785Z,196.88
2019-03-12T12:44:21.747Z,225.00
2019-03-12T12:45:21.736Z,264.38
2019-03-12T12:46:21.764Z,219.38
2019-03-12T12:47:21.712Z,185.62
2019-03-12T12:48:21.732Z,219.38
2019-03-12T12:49:21.690Z,247.50
2019-03-12T12:50:21.712Z,247.50
2019-03-12T12:51:21.672Z,174.38
2019-03-12T12:52:21.654Z,135.00
2019-03-12T12:53:21.688Z,118.12
2019-03-12T12:54:21.678Z,140.62
2019-03-12T12:55:21.628Z,174.38
2019-03-12T12:56:21.608Z,219.38
2019-03-12T12:57:21.606Z,151.88
2019-03-12T12:58:21.619Z,106.88
2019-03-12T12:59:21.610Z,118.12
2019-03-12T13:00:21.570Z,123.75
2019-03-12T13:01:21.575Z,157.50
2019-03-12T13:02:21.554Z,163.12
2019-03-12T13:03:21.566Z,230.62
2019-03-12T13:04:21.533Z,213.75
2019-03-12T13:05:21.574Z,163.12
2019-03-12T13:06:21.506Z,140.62